sensor_id;sensor_type;location;lat;lon;timestamp;P1;durP1;ratioP1;P2;durP2;ratioP2
71759;SDS011;59919;48.112;16.280;2024-01-27T00:00:54;43.90;;;31.92;;
71759;SDS011;59919;48.112;16.280;2024-01-27T00:03:25;48.90;;;34.78;;
71759;SDS011;59919;48.112;16.280;2024-01-27T00:05:56;45.80;;;32.00;;
71759;SDS011;59919;48.112;16.280;2024-01-27T00:08:27;46.70;;;32.08;;
71759;SDS011;59919;48.112;16.280;2024-01-27T00:10:58;45.55;;;30.63;;
71759;SDS011;59919;48.112;16.280;2024-01-27T00:13:29;49.35;;;33.67;;
71759;SDS011;59919;48.112;16.280;2024-01-27T00:16:00;49.28;;;32.50;;
71759;SDS011;59919;48.112;16.280;2024-01-27T00:18:31;48.78;;;31.73;;
71759;SDS011;59919;48.112;16.280;2024-01-27T00:21:02;47.65;;;31.95;;
71759;SDS011;59919;48.112;16.280;2024-01-27T00:23:34;42.75;;;29.85;;
71759;SDS011;59919;48.112;16.280;2024-01-27T00:26:06;44.10;;;29.17;;
71759;SDS011;59919;48.112;16.280;2024-01-27T00:28:37;40.47;;;29.00;;
71759;SDS011;59919;48.112;16.280;2024-01-27T00:31:08;39.25;;;26.95;;
71759;SDS011;59919;48.112;16.280;2024-01-27T00:33:39;38.47;;;28.17;;
71759;SDS011;59919;48.112;16.280;2024-01-27T00:36:10;41.72;;;29.17;;
71759;SDS011;59919;48.112;16.280;2024-01-27T00:38:42;40.15;;;28.55;;
71759;SDS011;59919;48.112;16.280;2024-01-27T00:41:16;43.83;;;29.33;;
71759;SDS011;59919;48.112;16.280;2024-01-27T00:43:48;38.03;;;27.23;;
71759;SDS011;59919;48.112;16.280;2024-01-27T00:46:19;37.63;;;26.38;;
71759;SDS011;59919;48.112;16.280;2024-01-27T00:48:50;39.03;;;26.23;;
71759;SDS011;59919;48.112;16.280;2024-01-27T00:51:21;39.20;;;26.95;;
71759;SDS011;59919;48.112;16.280;2024-01-27T00:53:52;37.30;;;26.95;;
71759;SDS011;59919;48.112;16.280;2024-01-27T00:56:23;34.05;;;23.80;;
71759;SDS011;59919;48.112;16.280;2024-01-27T00:58:54;36.17;;;24.77;;
71759;SDS011;59919;48.112;16.280;2024-01-27T01:01:25;33.33;;;23.92;;
71759;SDS011;59919;48.112;16.280;2024-01-27T01:03:56;34.33;;;23.55;;
71759;SDS011;59919;48.112;16.280;2024-01-27T01:06:27;33.47;;;24.15;;
71759;SDS011;59919;48.112;16.280;2024-01-27T01:08:58;33.50;;;23.75;;
71759;SDS011;59919;48.112;16.280;2024-01-27T01:11:29;34.38;;;25.23;;
71759;SDS011;59919;48.112;16.280;2024-01-27T01:14:01;36.50;;;24.55;;
71759;SDS011;59919;48.112;16.280;2024-01-27T01:16:32;32.28;;;23.48;;
71759;SDS011;59919;48.112;16.280;2024-01-27T01:19:03;29.60;;;21.67;;
71759;SDS011;59919;48.112;16.280;2024-01-27T01:21:34;30.45;;;22.58;;
71759;SDS011;59919;48.112;16.280;2024-01-27T01:24:05;30.13;;;21.60;;
71759;SDS011;59919;48.112;16.280;2024-01-27T01:26:36;31.65;;;22.23;;
71759;SDS011;59919;48.112;16.280;2024-01-27T01:29:07;32.25;;;22.65;;
71759;SDS011;59919;48.112;16.280;2024-01-27T01:31:41;26.02;;;18.42;;
71759;SDS011;59919;48.112;16.280;2024-01-27T01:34:13;29.63;;;21.65;;
71759;SDS011;59919;48.112;16.280;2024-01-27T01:36:44;29.58;;;21.13;;
71759;SDS011;59919;48.112;16.280;2024-01-27T01:39:16;29.27;;;20.75;;
71759;SDS011;59919;48.112;16.280;2024-01-27T01:41:47;25.60;;;18.73;;
71759;SDS011;59919;48.112;16.280;2024-01-27T01:44:18;27.13;;;19.83;;
71759;SDS011;59919;48.112;16.280;2024-01-27T01:46:49;27.63;;;20.40;;
71759;SDS011;59919;48.112;16.280;2024-01-27T01:49:20;26.23;;;19.00;;
71759;SDS011;59919;48.112;16.280;2024-01-27T01:51:51;26.15;;;18.80;;
71759;SDS011;59919;48.112;16.280;2024-01-27T01:54:22;25.77;;;18.65;;
71759;SDS011;59919;48.112;16.280;2024-01-27T01:56:58;26.70;;;19.73;;
71759;SDS011;59919;48.112;16.280;2024-01-27T01:59:29;26.80;;;18.38;;
71759;SDS011;59919;48.112;16.280;2024-01-27T02:02:00;25.42;;;16.92;;
71759;SDS011;59919;48.112;16.280;2024-01-27T02:04:39;22.70;;;16.17;;
71759;SDS011;59919;48.112;16.280;2024-01-27T02:07:11;22.15;;;16.35;;
71759;SDS011;59919;48.112;16.280;2024-01-27T02:09:42;26.67;;;17.25;;
71759;SDS011;59919;48.112;16.280;2024-01-27T02:12:14;24.45;;;17.98;;
71759;SDS011;59919;48.112;16.280;2024-01-27T02:14:45;24.90;;;17.20;;
71759;SDS011;59919;48.112;16.280;2024-01-27T02:17:16;21.13;;;16.27;;
71759;SDS011;59919;48.112;16.280;2024-01-27T02:19:47;20.85;;;15.60;;
71759;SDS011;59919;48.112;16.280;2024-01-27T02:22:18;20.05;;;14.80;;
71759;SDS011;59919;48.112;16.280;2024-01-27T02:24:49;22.60;;;14.55;;
71759;SDS011;59919;48.112;16.280;2024-01-27T02:27:20;23.42;;;16.35;;
71759;SDS011;59919;48.112;16.280;2024-01-27T02:29:51;21.60;;;16.08;;
71759;SDS011;59919;48.112;16.280;2024-01-27T02:32:22;21.23;;;15.35;;
71759;SDS011;59919;48.112;16.280;2024-01-27T02:34:54;19.17;;;14.35;;
71759;SDS011;59919;48.112;16.280;2024-01-27T02:37:25;23.15;;;16.45;;
71759;SDS011;59919;48.112;16.280;2024-01-27T02:39:56;17.48;;;13.52;;
71759;SDS011;59919;48.112;16.280;2024-01-27T02:42:27;20.00;;;13.82;;
71759;SDS011;59919;48.112;16.280;2024-01-27T02:44:58;18.17;;;13.02;;
71759;SDS011;59919;48.112;16.280;2024-01-27T02:47:30;17.77;;;12.95;;
71759;SDS011;59919;48.112;16.280;2024-01-27T02:50:01;19.23;;;13.25;;
71759;SDS011;59919;48.112;16.280;2024-01-27T02:52:32;19.25;;;12.95;;
71759;SDS011;59919;48.112;16.280;2024-01-27T02:55:03;20.55;;;13.02;;
71759;SDS011;59919;48.112;16.280;2024-01-27T02:57:34;16.67;;;12.60;;
71759;SDS011;59919;48.112;16.280;2024-01-27T03:00:06;17.98;;;12.52;;
71759;SDS011;59919;48.112;16.280;2024-01-27T03:02:39;18.67;;;13.32;;
71759;SDS011;59919;48.112;16.280;2024-01-27T03:05:10;17.65;;;13.18;;
71759;SDS011;59919;48.112;16.280;2024-01-27T03:07:44;17.02;;;12.70;;
71759;SDS011;59919;48.112;16.280;2024-01-27T03:10:15;16.35;;;12.57;;
71759;SDS011;59919;48.112;16.280;2024-01-27T03:12:46;17.75;;;12.60;;
71759;SDS011;59919;48.112;16.280;2024-01-27T03:15:17;17.63;;;12.23;;
71759;SDS011;59919;48.112;16.280;2024-01-27T03:17:48;16.05;;;12.10;;
71759;SDS011;59919;48.112;16.280;2024-01-27T03:20:19;15.70;;;11.73;;
71759;SDS011;59919;48.112;16.280;2024-01-27T03:22:50;15.88;;;11.20;;
71759;SDS011;59919;48.112;16.280;2024-01-27T03:25:21;18.50;;;11.65;;
71759;SDS011;59919;48.112;16.280;2024-01-27T03:27:52;14.52;;;11.15;;
71759;SDS011;59919;48.112;16.280;2024-01-27T03:30:23;16.23;;;11.25;;
71759;SDS011;59919;48.112;16.280;2024-01-27T03:32:55;15.25;;;11.32;;
71759;SDS011;59919;48.112;16.280;2024-01-27T03:35:26;13.77;;;10.38;;
71759;SDS011;59919;48.112;16.280;2024-01-27T03:37:57;17.05;;;10.38;;
71759;SDS011;59919;48.112;16.280;2024-01-27T03:40:28;14.88;;;10.38;;
71759;SDS011;59919;48.112;16.280;2024-01-27T03:42:59;15.82;;;10.85;;
71759;SDS011;59919;48.112;16.280;2024-01-27T03:45:30;13.23;;;9.70;;
71759;SDS011;59919;48.112;16.280;2024-01-27T03:48:01;14.90;;;10.15;;
71759;SDS011;59919;48.112;16.280;2024-01-27T03:50:38;12.88;;;9.05;;
71759;SDS011;59919;48.112;16.280;2024-01-27T03:53:28;14.13;;;9.75;;
71759;SDS011;59919;48.112;16.280;2024-01-27T03:55:59;12.65;;;9.45;;
71759;SDS011;59919;48.112;16.280;2024-01-27T03:58:33;13.27;;;9.57;;
71759;SDS011;59919;48.112;16.280;2024-01-27T04:01:04;13.98;;;9.65;;
71759;SDS011;59919;48.112;16.280;2024-01-27T04:03:35;13.63;;;9.25;;
71759;SDS011;59919;48.112;16.280;2024-01-27T04:06:06;13.50;;;9.23;;
71759;SDS011;59919;48.112;16.280;2024-01-27T04:08:38;12.43;;;8.48;;
71759;SDS011;59919;48.112;16.280;2024-01-27T04:11:18;12.23;;;8.43;;
71759;SDS011;59919;48.112;16.280;2024-01-27T04:13:50;11.45;;;8.10;;
71759;SDS011;59919;48.112;16.280;2024-01-27T04:16:21;11.77;;;8.90;;
71759;SDS011;59919;48.112;16.280;2024-01-27T04:18:52;12.20;;;8.57;;
71759;SDS011;59919;48.112;16.280;2024-01-27T04:21:23;11.13;;;8.23;;
71759;SDS011;59919;48.112;16.280;2024-01-27T04:23:54;13.07;;;8.07;;
71759;SDS011;59919;48.112;16.280;2024-01-27T04:26:26;10.50;;;8.27;;
71759;SDS011;59919;48.112;16.280;2024-01-27T04:28:57;10.13;;;7.82;;
71759;SDS011;59919;48.112;16.280;2024-01-27T04:31:28;10.48;;;7.75;;
71759;SDS011;59919;48.112;16.280;2024-01-27T04:33:59;12.18;;;8.35;;
71759;SDS011;59919;48.112;16.280;2024-01-27T04:36:30;10.05;;;7.95;;
71759;SDS011;59919;48.112;16.280;2024-01-27T04:39:01;11.90;;;7.95;;
71759;SDS011;59919;48.112;16.280;2024-01-27T04:41:33;11.07;;;7.85;;
71759;SDS011;59919;48.112;16.280;2024-01-27T04:44:04;10.27;;;7.10;;
71759;SDS011;59919;48.112;16.280;2024-01-27T04:46:35;10.15;;;6.88;;
71759;SDS011;59919;48.112;16.280;2024-01-27T04:49:06;9.25;;;7.13;;
71759;SDS011;59919;48.112;16.280;2024-01-27T04:51:37;10.32;;;7.22;;
71759;SDS011;59919;48.112;16.280;2024-01-27T04:54:08;10.77;;;7.38;;
71759;SDS011;59919;48.112;16.280;2024-01-27T04:56:39;11.93;;;7.63;;
71759;SDS011;59919;48.112;16.280;2024-01-27T04:59:10;8.60;;;6.72;;
71759;SDS011;59919;48.112;16.280;2024-01-27T05:01:45;9.27;;;6.72;;
71759;SDS011;59919;48.112;16.280;2024-01-27T05:04:16;9.57;;;6.95;;
71759;SDS011;59919;48.112;16.280;2024-01-27T05:06:48;10.65;;;6.63;;
71759;SDS011;59919;48.112;16.280;2024-01-27T05:09:19;12.05;;;6.93;;
71759;SDS011;59919;48.112;16.280;2024-01-27T05:11:51;9.75;;;5.88;;
71759;SDS011;59919;48.112;16.280;2024-01-27T05:14:23;13.57;;;6.28;;
71759;SDS011;59919;48.112;16.280;2024-01-27T05:16:54;8.85;;;6.15;;
71759;SDS011;59919;48.112;16.280;2024-01-27T05:19:25;8.15;;;5.75;;
71759;SDS011;59919;48.112;16.280;2024-01-27T05:21:56;7.93;;;5.93;;
71759;SDS011;59919;48.112;16.280;2024-01-27T05:24:27;7.70;;;6.20;;
71759;SDS011;59919;48.112;16.280;2024-01-27T05:26:58;9.05;;;6.30;;
71759;SDS011;59919;48.112;16.280;2024-01-27T05:29:29;8.77;;;5.80;;
71759;SDS011;59919;48.112;16.280;2024-01-27T05:32:00;8.77;;;5.40;;
71759;SDS011;59919;48.112;16.280;2024-01-27T05:34:31;7.10;;;5.40;;
71759;SDS011;59919;48.112;16.280;2024-01-27T05:37:02;9.63;;;6.07;;
71759;SDS011;59919;48.112;16.280;2024-01-27T05:39:34;8.10;;;5.65;;
71759;SDS011;59919;48.112;16.280;2024-01-27T05:42:05;8.60;;;6.05;;
71759;SDS011;59919;48.112;16.280;2024-01-27T05:44:36;7.30;;;5.50;;
71759;SDS011;59919;48.112;16.280;2024-01-27T05:47:08;8.27;;;6.38;;
71759;SDS011;59919;48.112;16.280;2024-01-27T05:49:41;7.78;;;5.30;;
71759;SDS011;59919;48.112;16.280;2024-01-27T05:52:12;6.53;;;5.10;;
71759;SDS011;59919;48.112;16.280;2024-01-27T05:54:43;6.47;;;4.90;;
71759;SDS011;59919;48.112;16.280;2024-01-27T05:57:15;5.80;;;4.63;;
71759;SDS011;59919;48.112;16.280;2024-01-27T05:59:46;7.40;;;5.47;;
71759;SDS011;59919;48.112;16.280;2024-01-27T06:02:17;8.50;;;5.50;;
71759;SDS011;59919;48.112;16.280;2024-01-27T06:04:48;6.57;;;4.85;;
71759;SDS011;59919;48.112;16.280;2024-01-27T06:07:19;7.50;;;4.78;;
71759;SDS011;59919;48.112;16.280;2024-01-27T06:09:50;7.13;;;5.00;;
71759;SDS011;59919;48.112;16.280;2024-01-27T06:12:21;6.28;;;4.75;;
71759;SDS011;59919;48.112;16.280;2024-01-27T06:14:52;7.55;;;5.00;;
71759;SDS011;59919;48.112;16.280;2024-01-27T06:17:23;6.47;;;4.88;;
71759;SDS011;59919;48.112;16.280;2024-01-27T06:19:54;6.57;;;4.60;;
71759;SDS011;59919;48.112;16.280;2024-01-27T06:22:25;7.90;;;4.40;;
71759;SDS011;59919;48.112;16.280;2024-01-27T06:24:56;7.22;;;4.57;;
71759;SDS011;59919;48.112;16.280;2024-01-27T06:27:27;4.85;;;4.18;;
71759;SDS011;59919;48.112;16.280;2024-01-27T06:29:59;7.75;;;4.72;;
71759;SDS011;59919;48.112;16.280;2024-01-27T06:32:30;5.43;;;4.13;;
71759;SDS011;59919;48.112;16.280;2024-01-27T06:35:01;8.23;;;4.82;;
71759;SDS011;59919;48.112;16.280;2024-01-27T06:37:32;7.50;;;4.25;;
71759;SDS011;59919;48.112;16.280;2024-01-27T06:40:03;5.40;;;4.50;;
71759;SDS011;59919;48.112;16.280;2024-01-27T06:42:34;6.28;;;3.90;;
71759;SDS011;59919;48.112;16.280;2024-01-27T06:45:05;6.18;;;4.20;;
71759;SDS011;59919;48.112;16.280;2024-01-27T06:47:37;5.65;;;3.80;;
71759;SDS011;59919;48.112;16.280;2024-01-27T06:50:08;5.80;;;3.90;;
71759;SDS011;59919;48.112;16.280;2024-01-27T06:52:39;5.43;;;3.75;;
71759;SDS011;59919;48.112;16.280;2024-01-27T06:55:11;4.85;;;3.92;;
71759;SDS011;59919;48.112;16.280;2024-01-27T06:57:42;4.95;;;3.95;;
71759;SDS011;59919;48.112;16.280;2024-01-27T07:00:13;4.93;;;3.75;;
71759;SDS011;59919;48.112;16.280;2024-01-27T07:02:45;5.68;;;3.83;;
71759;SDS011;59919;48.112;16.280;2024-01-27T07:05:16;4.20;;;3.40;;
71759;SDS011;59919;48.112;16.280;2024-01-27T07:07:47;6.22;;;3.92;;
71759;SDS011;59919;48.112;16.280;2024-01-27T07:10:19;4.88;;;3.67;;
71759;SDS011;59919;48.112;16.280;2024-01-27T07:12:50;5.70;;;3.95;;
71759;SDS011;59919;48.112;16.280;2024-01-27T07:15:21;9.65;;;3.60;;
71759;SDS011;59919;48.112;16.280;2024-01-27T07:17:54;6.05;;;3.53;;
71759;SDS011;59919;48.112;16.280;2024-01-27T07:20:25;4.30;;;3.38;;
71759;SDS011;59919;48.112;16.280;2024-01-27T07:22:56;6.30;;;3.63;;
71759;SDS011;59919;48.112;16.280;2024-01-27T07:25:27;4.38;;;3.15;;
71759;SDS011;59919;48.112;16.280;2024-01-27T07:28:00;4.25;;;3.40;;
71759;SDS011;59919;48.112;16.280;2024-01-27T07:30:31;4.65;;;3.55;;
71759;SDS011;59919;48.112;16.280;2024-01-27T07:33:02;4.85;;;3.65;;
71759;SDS011;59919;48.112;16.280;2024-01-27T07:35:33;6.15;;;3.42;;
71759;SDS011;59919;48.112;16.280;2024-01-27T07:38:04;3.50;;;2.95;;
71759;SDS011;59919;48.112;16.280;2024-01-27T07:40:35;5.63;;;3.15;;
71759;SDS011;59919;48.112;16.280;2024-01-27T07:43:06;5.68;;;3.00;;
71759;SDS011;59919;48.112;16.280;2024-01-27T07:45:37;3.47;;;2.72;;
71759;SDS011;59919;48.112;16.280;2024-01-27T07:48:08;6.55;;;3.17;;
71759;SDS011;59919;48.112;16.280;2024-01-27T07:50:40;3.40;;;3.00;;
71759;SDS011;59919;48.112;16.280;2024-01-27T07:53:11;7.93;;;3.50;;
71759;SDS011;59919;48.112;16.280;2024-01-27T07:55:42;8.02;;;3.22;;
71759;SDS011;59919;48.112;16.280;2024-01-27T07:58:13;5.72;;;3.15;;
71759;SDS011;59919;48.112;16.280;2024-01-27T08:00:44;9.15;;;2.90;;
71759;SDS011;59919;48.112;16.280;2024-01-27T08:03:15;6.38;;;3.63;;
71759;SDS011;59919;48.112;16.280;2024-01-27T08:05:46;8.70;;;4.25;;
71759;SDS011;59919;48.112;16.280;2024-01-27T08:08:17;14.55;;;5.03;;
71759;SDS011;59919;48.112;16.280;2024-01-27T08:10:49;33.38;;;7.57;;
71759;SDS011;59919;48.112;16.280;2024-01-27T08:13:20;23.55;;;10.00;;
71759;SDS011;59919;48.112;16.280;2024-01-27T08:15:51;24.13;;;11.70;;
71759;SDS011;59919;48.112;16.280;2024-01-27T08:18:22;28.65;;;13.25;;
71759;SDS011;59919;48.112;16.280;2024-01-27T08:20:54;32.17;;;10.70;;
71759;SDS011;59919;48.112;16.280;2024-01-27T08:23:25;23.38;;;12.15;;
71759;SDS011;59919;48.112;16.280;2024-01-27T08:25:56;28.05;;;10.15;;
71759;SDS011;59919;48.112;16.280;2024-01-27T08:28:27;30.15;;;11.52;;
71759;SDS011;59919;48.112;16.280;2024-01-27T08:30:58;30.45;;;13.98;;
71759;SDS011;59919;48.112;16.280;2024-01-27T08:33:30;22.48;;;12.13;;
71759;SDS011;59919;48.112;16.280;2024-01-27T08:36:01;27.42;;;13.18;;
71759;SDS011;59919;48.112;16.280;2024-01-27T08:38:32;31.60;;;14.85;;
71759;SDS011;59919;48.112;16.280;2024-01-27T08:41:03;45.83;;;24.55;;
71759;SDS011;59919;48.112;16.280;2024-01-27T08:43:34;43.05;;;24.63;;
71759;SDS011;59919;48.112;16.280;2024-01-27T08:46:05;47.70;;;25.08;;
71759;SDS011;59919;48.112;16.280;2024-01-27T08:48:41;47.95;;;26.17;;
71759;SDS011;59919;48.112;16.280;2024-01-27T08:51:12;51.40;;;27.88;;
71759;SDS011;59919;48.112;16.280;2024-01-27T08:53:44;53.80;;;27.90;;
71759;SDS011;59919;48.112;16.280;2024-01-27T08:56:19;52.40;;;27.05;;
71759;SDS011;59919;48.112;16.280;2024-01-27T08:58:50;53.17;;;28.42;;
71759;SDS011;59919;48.112;16.280;2024-01-27T09:01:22;66.25;;;36.95;;
71759;SDS011;59919;48.112;16.280;2024-01-27T09:03:53;71.75;;;40.92;;
71759;SDS011;59919;48.112;16.280;2024-01-27T09:06:25;92.63;;;54.10;;
71759;SDS011;59919;48.112;16.280;2024-01-27T09:08:56;77.78;;;45.58;;
71759;SDS011;59919;48.112;16.280;2024-01-27T09:11:27;87.25;;;50.90;;
71759;SDS011;59919;48.112;16.280;2024-01-27T09:14:00;98.95;;;59.95;;
71759;SDS011;59919;48.112;16.280;2024-01-27T09:16:32;100.93;;;62.40;;
71759;SDS011;59919;48.112;16.280;2024-01-27T09:19:03;95.53;;;50.22;;
71759;SDS011;59919;48.112;16.280;2024-01-27T09:21:34;75.68;;;42.80;;
71759;SDS011;59919;48.112;16.280;2024-01-27T09:24:05;59.42;;;37.47;;
71759;SDS011;59919;48.112;16.280;2024-01-27T09:26:36;66.50;;;38.60;;
71759;SDS011;59919;48.112;16.280;2024-01-27T09:29:07;68.47;;;39.97;;
71759;SDS011;59919;48.112;16.280;2024-01-27T09:31:39;68.10;;;42.05;;
71759;SDS011;59919;48.112;16.280;2024-01-27T09:34:10;74.90;;;39.22;;
71759;SDS011;59919;48.112;16.280;2024-01-27T09:36:41;80.05;;;46.50;;
71759;SDS011;59919;48.112;16.280;2024-01-27T09:39:12;88.80;;;48.45;;
71759;SDS011;59919;48.112;16.280;2024-01-27T09:41:44;70.05;;;39.22;;
71759;SDS011;59919;48.112;16.280;2024-01-27T09:44:16;81.43;;;46.75;;
71759;SDS011;59919;48.112;16.280;2024-01-27T09:46:49;75.28;;;43.90;;
71759;SDS011;59919;48.112;16.280;2024-01-27T09:49:20;81.53;;;47.22;;
71759;SDS011;59919;48.112;16.280;2024-01-27T09:51:51;65.32;;;40.60;;
71759;SDS011;59919;48.112;16.280;2024-01-27T09:54:23;93.32;;;53.85;;
71759;SDS011;59919;48.112;16.280;2024-01-27T09:56:54;114.35;;;72.85;;
71759;SDS011;59919;48.112;16.280;2024-01-27T09:59:26;83.60;;;49.88;;
71759;SDS011;59919;48.112;16.280;2024-01-27T10:01:58;100.65;;;61.50;;
71759;SDS011;59919;48.112;16.280;2024-01-27T10:04:31;93.50;;;59.92;;
71759;SDS011;59919;48.112;16.280;2024-01-27T10:07:03;127.80;;;71.65;;
71759;SDS011;59919;48.112;16.280;2024-01-27T10:09:35;116.80;;;71.40;;
71759;SDS011;59919;48.112;16.280;2024-01-27T10:12:07;105.55;;;65.47;;
71759;SDS011;59919;48.112;16.280;2024-01-27T10:14:40;121.88;;;76.63;;
71759;SDS011;59919;48.112;16.280;2024-01-27T10:17:12;108.45;;;67.35;;
71759;SDS011;59919;48.112;16.280;2024-01-27T10:19:43;124.22;;;72.50;;
71759;SDS011;59919;48.112;16.280;2024-01-27T10:22:14;134.73;;;82.22;;
71759;SDS011;59919;48.112;16.280;2024-01-27T10:24:45;134.73;;;83.70;;
71759;SDS011;59919;48.112;16.280;2024-01-27T10:27:16;123.28;;;75.85;;
71759;SDS011;59919;48.112;16.280;2024-01-27T10:29:52;130.30;;;78.30;;
71759;SDS011;59919;48.112;16.280;2024-01-27T10:32:26;130.63;;;82.63;;
71759;SDS011;59919;48.112;16.280;2024-01-27T10:35:15;133.15;;;82.75;;
71759;SDS011;59919;48.112;16.280;2024-01-27T10:37:46;123.68;;;75.40;;
71759;SDS011;59919;48.112;16.280;2024-01-27T10:40:22;130.45;;;83.45;;
71759;SDS011;59919;48.112;16.280;2024-01-27T10:43:00;122.07;;;76.50;;
71759;SDS011;59919;48.112;16.280;2024-01-27T10:45:37;126.93;;;77.97;;
71759;SDS011;59919;48.112;16.280;2024-01-27T10:48:09;127.28;;;79.03;;
71759;SDS011;59919;48.112;16.280;2024-01-27T10:50:44;130.43;;;79.30;;
71759;SDS011;59919;48.112;16.280;2024-01-27T10:53:22;127.68;;;79.95;;
71759;SDS011;59919;48.112;16.280;2024-01-27T10:56:01;133.10;;;82.18;;
71759;SDS011;59919;48.112;16.280;2024-01-27T10:58:37;125.70;;;82.93;;
71759;SDS011;59919;48.112;16.280;2024-01-27T11:01:14;133.25;;;86.88;;
71759;SDS011;59919;48.112;16.280;2024-01-27T11:03:46;134.05;;;83.82;;
71759;SDS011;59919;48.112;16.280;2024-01-27T11:06:18;144.35;;;91.45;;
71759;SDS011;59919;48.112;16.280;2024-01-27T11:08:51;145.00;;;91.20;;
71759;SDS011;59919;48.112;16.280;2024-01-27T11:11:23;144.30;;;92.53;;
71759;SDS011;59919;48.112;16.280;2024-01-27T11:13:55;144.63;;;91.18;;
71759;SDS011;59919;48.112;16.280;2024-01-27T11:16:26;136.07;;;87.28;;
71759;SDS011;59919;48.112;16.280;2024-01-27T11:18:59;147.05;;;93.78;;
71759;SDS011;59919;48.112;16.280;2024-01-27T11:21:30;152.48;;;100.93;;
71759;SDS011;59919;48.112;16.280;2024-01-27T11:24:01;154.95;;;102.22;;
71759;SDS011;59919;48.112;16.280;2024-01-27T11:26:43;142.63;;;91.60;;
71759;SDS011;59919;48.112;16.280;2024-01-27T11:29:15;163.20;;;100.93;;
71759;SDS011;59919;48.112;16.280;2024-01-27T11:31:50;176.77;;;110.90;;
71759;SDS011;59919;48.112;16.280;2024-01-27T11:34:21;170.18;;;111.57;;
71759;SDS011;59919;48.112;16.280;2024-01-27T11:36:52;171.63;;;111.20;;
71759;SDS011;59919;48.112;16.280;2024-01-27T11:39:24;164.10;;;105.25;;
71759;SDS011;59919;48.112;16.280;2024-01-27T11:42:08;179.95;;;116.45;;
71759;SDS011;59919;48.112;16.280;2024-01-27T11:44:43;186.57;;;119.00;;
71759;SDS011;59919;48.112;16.280;2024-01-27T11:47:18;186.93;;;121.45;;
71759;SDS011;59919;48.112;16.280;2024-01-27T11:49:53;173.70;;;113.88;;
71759;SDS011;59919;48.112;16.280;2024-01-27T11:52:27;179.45;;;116.97;;
71759;SDS011;59919;48.112;16.280;2024-01-27T11:54:59;179.90;;;118.88;;
71759;SDS011;59919;48.112;16.280;2024-01-27T11:57:31;190.00;;;119.25;;
71759;SDS011;59919;48.112;16.280;2024-01-27T12:00:02;184.88;;;116.22;;
71759;SDS011;59919;48.112;16.280;2024-01-27T12:02:34;167.73;;;108.20;;
71759;SDS011;59919;48.112;16.280;2024-01-27T12:05:06;168.85;;;109.53;;
71759;SDS011;59919;48.112;16.280;2024-01-27T12:07:39;165.88;;;105.10;;
71759;SDS011;59919;48.112;16.280;2024-01-27T12:10:10;162.18;;;102.57;;
71759;SDS011;59919;48.112;16.280;2024-01-27T12:12:41;175.18;;;111.15;;
71759;SDS011;59919;48.112;16.280;2024-01-27T12:15:12;170.85;;;107.50;;
71759;SDS011;59919;48.112;16.280;2024-01-27T12:17:49;171.98;;;108.30;;
71759;SDS011;59919;48.112;16.280;2024-01-27T12:20:22;161.70;;;109.32;;
71759;SDS011;59919;48.112;16.280;2024-01-27T12:23:03;175.32;;;113.75;;
71759;SDS011;59919;48.112;16.280;2024-01-27T12:25:35;174.95;;;113.18;;
71759;SDS011;59919;48.112;16.280;2024-01-27T12:28:06;178.07;;;113.72;;
71759;SDS011;59919;48.112;16.280;2024-01-27T12:30:39;177.63;;;117.13;;
71759;SDS011;59919;48.112;16.280;2024-01-27T12:33:10;177.13;;;114.43;;
71759;SDS011;59919;48.112;16.280;2024-01-27T12:35:43;176.18;;;115.57;;
71759;SDS011;59919;48.112;16.280;2024-01-27T12:38:14;183.70;;;119.30;;
71759;SDS011;59919;48.112;16.280;2024-01-27T12:40:45;182.20;;;123.15;;
71759;SDS011;59919;48.112;16.280;2024-01-27T12:43:16;178.10;;;116.35;;
71759;SDS011;59919;48.112;16.280;2024-01-27T12:45:47;193.45;;;124.25;;
71759;SDS011;59919;48.112;16.280;2024-01-27T12:48:18;194.98;;;125.47;;
71759;SDS011;59919;48.112;16.280;2024-01-27T12:50:49;185.00;;;126.20;;
71759;SDS011;59919;48.112;16.280;2024-01-27T12:53:21;186.27;;;122.43;;
71759;SDS011;59919;48.112;16.280;2024-01-27T12:55:52;192.60;;;122.03;;
71759;SDS011;59919;48.112;16.280;2024-01-27T12:58:23;195.18;;;128.75;;
71759;SDS011;59919;48.112;16.280;2024-01-27T13:00:54;202.48;;;134.02;;
71759;SDS011;59919;48.112;16.280;2024-01-27T13:03:25;193.70;;;128.93;;
71759;SDS011;59919;48.112;16.280;2024-01-27T13:05:56;186.20;;;123.85;;
71759;SDS011;59919;48.112;16.280;2024-01-27T13:08:28;193.27;;;127.80;;
71759;SDS011;59919;48.112;16.280;2024-01-27T13:10:59;194.48;;;131.20;;
71759;SDS011;59919;48.112;16.280;2024-01-27T13:13:30;202.35;;;132.38;;
71759;SDS011;59919;48.112;16.280;2024-01-27T13:16:02;188.18;;;127.88;;
71759;SDS011;59919;48.112;16.280;2024-01-27T13:18:34;195.15;;;125.22;;
71759;SDS011;59919;48.112;16.280;2024-01-27T13:21:05;191.57;;;132.55;;
71759;SDS011;59919;48.112;16.280;2024-01-27T13:23:36;188.65;;;122.50;;
71759;SDS011;59919;48.112;16.280;2024-01-27T13:26:07;196.82;;;128.43;;
71759;SDS011;59919;48.112;16.280;2024-01-27T13:28:39;193.05;;;128.45;;
71759;SDS011;59919;48.112;16.280;2024-01-27T13:31:11;181.05;;;122.25;;
71759;SDS011;59919;48.112;16.280;2024-01-27T13:33:42;193.40;;;129.73;;
71759;SDS011;59919;48.112;16.280;2024-01-27T13:36:13;183.45;;;121.13;;
71759;SDS011;59919;48.112;16.280;2024-01-27T13:38:44;192.57;;;126.65;;
71759;SDS011;59919;48.112;16.280;2024-01-27T13:41:15;199.52;;;135.18;;
71759;SDS011;59919;48.112;16.280;2024-01-27T13:43:46;200.35;;;133.52;;
71759;SDS011;59919;48.112;16.280;2024-01-27T13:46:17;194.80;;;133.77;;
71759;SDS011;59919;48.112;16.280;2024-01-27T13:48:49;188.07;;;126.95;;
71759;SDS011;59919;48.112;16.280;2024-01-27T13:51:20;203.93;;;135.23;;
71759;SDS011;59919;48.112;16.280;2024-01-27T13:53:51;185.52;;;125.80;;
71759;SDS011;59919;48.112;16.280;2024-01-27T13:56:22;194.77;;;128.88;;
71759;SDS011;59919;48.112;16.280;2024-01-27T13:58:53;189.40;;;126.95;;
71759;SDS011;59919;48.112;16.280;2024-01-27T14:01:25;194.40;;;125.53;;
71759;SDS011;59919;48.112;16.280;2024-01-27T14:03:56;198.90;;;133.23;;
71759;SDS011;59919;48.112;16.280;2024-01-27T14:06:27;197.32;;;132.95;;
71759;SDS011;59919;48.112;16.280;2024-01-27T14:08:58;207.60;;;136.25;;
71759;SDS011;59919;48.112;16.280;2024-01-27T14:11:29;188.07;;;124.35;;
71759;SDS011;59919;48.112;16.280;2024-01-27T14:14:00;186.63;;;132.00;;
71759;SDS011;59919;48.112;16.280;2024-01-27T14:16:31;206.25;;;136.02;;
71759;SDS011;59919;48.112;16.280;2024-01-27T14:19:02;199.95;;;131.70;;
71759;SDS011;59919;48.112;16.280;2024-01-27T14:21:34;195.27;;;129.55;;
71759;SDS011;59919;48.112;16.280;2024-01-27T14:24:09;176.73;;;120.60;;
71759;SDS011;59919;48.112;16.280;2024-01-27T14:26:40;175.20;;;115.55;;
71759;SDS011;59919;48.112;16.280;2024-01-27T14:29:11;179.93;;;118.68;;
71759;SDS011;59919;48.112;16.280;2024-01-27T14:31:42;183.60;;;125.20;;
71759;SDS011;59919;48.112;16.280;2024-01-27T14:34:13;180.18;;;120.60;;